sensor_id;sensor_type;location;lat;lon;timestamp;temperature;humidity
13264;DHT22;6700;51.988;7.646;2023-06-14T00:01:15;18.30;99.90
13264;DHT22;6700;51.988;7.646;2023-06-14T00:03:42;18.30;99.90
13264;DHT22;6700;51.988;7.646;2023-06-14T00:06:09;18.20;99.90
13264;DHT22;6700;51.988;7.646;2023-06-14T00:08:35;18.20;99.90
13264;DHT22;6700;51.988;7.646;2023-06-14T00:11:02;18.20;99.90
13264;DHT22;6700;51.988;7.646;2023-06-14T00:13:29;18.10;99.90
13264;DHT22;6700;51.988;7.646;2023-06-14T00:15:55;18.10;99.90
13264;DHT22;6700;51.988;7.646;2023-06-14T00:18:23;18.00;99.90
13264;DHT22;6700;51.988;7.646;2023-06-14T00:20:56;18.00;99.90
13264;DHT22;6700;51.988;7.646;2023-06-14T00:23:23;18.00;99.90
13264;DHT22;6700;51.988;7.646;2023-06-14T00:25:49;17.90;99.90
13264;DHT22;6700;51.988;7.646;2023-06-14T00:28:16;17.90;99.90
13264;DHT22;6700;51.988;7.646;2023-06-14T00:30:43;17.80;99.90
13264;DHT22;6700;51.988;7.646;2023-06-14T00:33:13;17.80;99.90
13264;DHT22;6700;51.988;7.646;2023-06-14T00:35:40;17.70;99.90
13264;DHT22;6700;51.988;7.646;2023-06-14T00:38:06;17.70;99.90
13264;DHT22;6700;51.988;7.646;2023-06-14T00:40:33;17.80;99.90
13264;DHT22;6700;51.988;7.646;2023-06-14T00:43:01;17.70;99.90
13264;DHT22;6700;51.988;7.646;2023-06-14T00:45:27;17.70;99.90
13264;DHT22;6700;51.988;7.646;2023-06-14T00:47:54;17.60;99.90
13264;DHT22;6700;51.988;7.646;2023-06-14T00:50:22;17.60;99.90
13264;DHT22;6700;51.988;7.646;2023-06-14T00:52:50;17.60;99.90
13264;DHT22;6700;51.988;7.646;2023-06-14T00:55:17;17.50;99.90
13264;DHT22;6700;51.988;7.646;2023-06-14T00:57:44;17.50;99.90
13264;DHT22;6700;51.988;7.646;2023-06-14T01:00:12;17.50;99.90
13264;DHT22;6700;51.988;7.646;2023-06-14T01:02:39;17.50;99.90
13264;DHT22;6700;51.988;7.646;2023-06-14T01:05:08;17.50;99.90
13264;DHT22;6700;51.988;7.646;2023-06-14T01:10:35;17.40;99.90
13264;DHT22;6700;51.988;7.646;2023-06-14T01:13:31;17.40;99.90
13264;DHT22;6700;51.988;7.646;2023-06-14T01:15:59;17.30;99.90
13264;DHT22;6700;51.988;7.646;2023-06-14T01:18:28;17.30;99.90
13264;DHT22;6700;51.988;7.646;2023-06-14T01:20:56;17.30;99.90
13264;DHT22;6700;51.988;7.646;2023-06-14T01:23:23;17.10;99.90
13264;DHT22;6700;51.988;7.646;2023-06-14T01:25:50;17.20;99.90
13264;DHT22;6700;51.988;7.646;2023-06-14T01:28:21;17.20;99.90
13264;DHT22;6700;51.988;7.646;2023-06-14T01:30:53;17.10;99.90
13264;DHT22;6700;51.988;7.646;2023-06-14T01:33:24;17.10;99.90
13264;DHT22;6700;51.988;7.646;2023-06-14T01:35:53;17.10;99.90
13264;DHT22;6700;51.988;7.646;2023-06-14T01:38:23;17.00;99.90
13264;DHT22;6700;51.988;7.646;2023-06-14T01:40:52;17.00;99.90
13264;DHT22;6700;51.988;7.646;2023-06-14T01:43:21;17.00;99.90
13264;DHT22;6700;51.988;7.646;2023-06-14T01:45:48;16.90;99.90
13264;DHT22;6700;51.988;7.646;2023-06-14T01:48:18;16.90;99.90
13264;DHT22;6700;51.988;7.646;2023-06-14T01:50:46;16.80;99.90
13264;DHT22;6700;51.988;7.646;2023-06-14T01:53:14;16.80;99.90
13264;DHT22;6700;51.988;7.646;2023-06-14T01:55:41;16.80;99.90
13264;DHT22;6700;51.988;7.646;2023-06-14T01:58:10;16.90;99.90
13264;DHT22;6700;51.988;7.646;2023-06-14T02:00:37;16.70;99.90
13264;DHT22;6700;51.988;7.646;2023-06-14T02:03:04;16.70;99.90
13264;DHT22;6700;51.988;7.646;2023-06-14T02:05:31;16.70;99.90
13264;DHT22;6700;51.988;7.646;2023-06-14T02:07:58;16.60;99.90
13264;DHT22;6700;51.988;7.646;2023-06-14T02:10:25;16.60;99.90
13264;DHT22;6700;51.988;7.646;2023-06-14T02:12:51;16.70;99.90
13264;DHT22;6700;51.988;7.646;2023-06-14T02:15:18;16.50;99.90
13264;DHT22;6700;51.988;7.646;2023-06-14T02:17:46;16.50;99.90
13264;DHT22;6700;51.988;7.646;2023-06-14T02:20:13;16.50;99.90
13264;DHT22;6700;51.988;7.646;2023-06-14T02:22:41;16.50;99.90
13264;DHT22;6700;51.988;7.646;2023-06-14T02:25:08;16.40;99.90
13264;DHT22;6700;51.988;7.646;2023-06-14T02:27:35;16.40;99.90
13264;DHT22;6700;51.988;7.646;2023-06-14T02:30:02;16.30;99.90
13264;DHT22;6700;51.988;7.646;2023-06-14T02:32:29;16.40;99.90
13264;DHT22;6700;51.988;7.646;2023-06-14T02:34:56;16.30;99.90
13264;DHT22;6700;51.988;7.646;2023-06-14T02:37:23;16.30;99.90
13264;DHT22;6700;51.988;7.646;2023-06-14T02:39:50;16.30;99.90
13264;DHT22;6700;51.988;7.646;2023-06-14T02:42:17;16.30;99.90
13264;DHT22;6700;51.988;7.646;2023-06-14T02:44:43;16.30;99.90
13264;DHT22;6700;51.988;7.646;2023-06-14T02:47:11;16.20;99.90
13264;DHT22;6700;51.988;7.646;2023-06-14T02:49:38;16.20;99.90
13264;DHT22;6700;51.988;7.646;2023-06-14T02:52:05;16.10;99.90
13264;DHT22;6700;51.988;7.646;2023-06-14T02:54:32;16.20;99.90
13264;DHT22;6700;51.988;7.646;2023-06-14T02:56:59;16.10;99.90
13264;DHT22;6700;51.988;7.646;2023-06-14T02:59:26;16.20;99.90
13264;DHT22;6700;51.988;7.646;2023-06-14T03:01:53;16.10;99.90
13264;DHT22;6700;51.988;7.646;2023-06-14T03:04:20;16.00;99.90
13264;DHT22;6700;51.988;7.646;2023-06-14T03:06:47;16.00;99.90
13264;DHT22;6700;51.988;7.646;2023-06-14T03:09:17;16.00;99.90
13264;DHT22;6700;51.988;7.646;2023-06-14T03:11:43;16.00;99.90
13264;DHT22;6700;51.988;7.646;2023-06-14T03:14:10;16.00;99.90
13264;DHT22;6700;51.988;7.646;2023-06-14T03:16:38;16.10;99.90
13264;DHT22;6700;51.988;7.646;2023-06-14T03:19:05;16.00;99.90
13264;DHT22;6700;51.988;7.646;2023-06-14T03:21:31;16.00;99.90
13264;DHT22;6700;51.988;7.646;2023-06-14T03:23:58;16.00;99.90
13264;DHT22;6700;51.988;7.646;2023-06-14T03:26:26;16.00;99.90
13264;DHT22;6700;51.988;7.646;2023-06-14T03:28:52;15.90;99.90
13264;DHT22;6700;51.988;7.646;2023-06-14T03:31:19;16.00;99.90
13264;DHT22;6700;51.988;7.646;2023-06-14T03:33:46;15.90;99.90
13264;DHT22;6700;51.988;7.646;2023-06-14T03:36:13;16.00;99.90
13264;DHT22;6700;51.988;7.646;2023-06-14T03:38:40;15.90;99.90
13264;DHT22;6700;51.988;7.646;2023-06-14T03:41:06;15.90;99.90
13264;DHT22;6700;51.988;7.646;2023-06-14T03:43:33;15.90;99.90
13264;DHT22;6700;51.988;7.646;2023-06-14T03:46:01;16.00;99.90
13264;DHT22;6700;51.988;7.646;2023-06-14T03:48:27;16.30;99.90
13264;DHT22;6700;51.988;7.646;2023-06-14T03:50:54;15.90;99.90
13264;DHT22;6700;51.988;7.646;2023-06-14T03:53:26;16.00;99.90
13264;DHT22;6700;51.988;7.646;2023-06-14T03:55:55;15.90;99.90
13264;DHT22;6700;51.988;7.646;2023-06-14T03:58:23;15.90;99.90
13264;DHT22;6700;51.988;7.646;2023-06-14T04:00:50;15.90;99.90
13264;DHT22;6700;51.988;7.646;2023-06-14T04:03:17;15.80;99.90
13264;DHT22;6700;51.988;7.646;2023-06-14T04:05:45;15.90;99.90
13264;DHT22;6700;51.988;7.646;2023-06-14T04:08:15;15.90;99.90
13264;DHT22;6700;51.988;7.646;2023-06-14T04:10:45;15.90;99.90
13264;DHT22;6700;51.988;7.646;2023-06-14T04:13:12;15.90;99.90
13264;DHT22;6700;51.988;7.646;2023-06-14T04:15:40;15.90;99.90
13264;DHT22;6700;51.988;7.646;2023-06-14T04:18:10;15.90;99.90
13264;DHT22;6700;51.988;7.646;2023-06-14T04:20:37;15.90;99.90
13264;DHT22;6700;51.988;7.646;2023-06-14T04:23:16;15.90;99.90
13264;DHT22;6700;51.988;7.646;2023-06-14T04:25:44;15.90;99.90
13264;DHT22;6700;51.988;7.646;2023-06-14T04:28:16;16.00;99.90
13264;DHT22;6700;51.988;7.646;2023-06-14T04:30:43;16.00;99.90
13264;DHT22;6700;51.988;7.646;2023-06-14T04:33:11;16.00;99.90
13264;DHT22;6700;51.988;7.646;2023-06-14T04:35:37;16.00;99.90
13264;DHT22;6700;51.988;7.646;2023-06-14T04:38:05;15.90;99.90
13264;DHT22;6700;51.988;7.646;2023-06-14T04:40:36;16.10;99.90
13264;DHT22;6700;51.988;7.646;2023-06-14T04:43:09;16.10;99.90
13264;DHT22;6700;51.988;7.646;2023-06-14T04:45:38;16.10;99.90
13264;DHT22;6700;51.988;7.646;2023-06-14T04:48:06;16.20;99.90
13264;DHT22;6700;51.988;7.646;2023-06-14T04:50:33;16.20;99.90
13264;DHT22;6700;51.988;7.646;2023-06-14T04:53:01;16.20;99.90
13264;DHT22;6700;51.988;7.646;2023-06-14T04:55:29;16.20;99.90
13264;DHT22;6700;51.988;7.646;2023-06-14T04:57:56;16.20;99.90
13264;DHT22;6700;51.988;7.646;2023-06-14T05:00:23;16.30;99.90
13264;DHT22;6700;51.988;7.646;2023-06-14T05:02:50;16.30;99.90
13264;DHT22;6700;51.988;7.646;2023-06-14T05:05:19;16.30;99.90
13264;DHT22;6700;51.988;7.646;2023-06-14T05:07:46;16.30;99.90
13264;DHT22;6700;51.988;7.646;2023-06-14T05:10:13;16.40;99.90
13264;DHT22;6700;51.988;7.646;2023-06-14T05:12:40;16.40;99.90
13264;DHT22;6700;51.988;7.646;2023-06-14T05:15:07;16.50;99.90
13264;DHT22;6700;51.988;7.646;2023-06-14T05:17:35;16.50;99.90
13264;DHT22;6700;51.988;7.646;2023-06-14T05:20:03;16.50;99.90
13264;DHT22;6700;51.988;7.646;2023-06-14T05:22:30;16.60;99.90
13264;DHT22;6700;51.988;7.646;2023-06-14T05:24:56;16.70;99.90
13264;DHT22;6700;51.988;7.646;2023-06-14T05:27:23;16.70;99.90
13264;DHT22;6700;51.988;7.646;2023-06-14T05:29:51;16.80;99.90
13264;DHT22;6700;51.988;7.646;2023-06-14T05:32:22;16.80;99.90
13264;DHT22;6700;51.988;7.646;2023-06-14T05:34:48;16.90;99.90
13264;DHT22;6700;51.988;7.646;2023-06-14T05:37:15;16.90;99.90
13264;DHT22;6700;51.988;7.646;2023-06-14T05:39:42;17.00;99.90
13264;DHT22;6700;51.988;7.646;2023-06-14T05:42:09;16.90;99.90
13264;DHT22;6700;51.988;7.646;2023-06-14T05:44:36;17.10;99.90
13264;DHT22;6700;51.988;7.646;2023-06-14T05:47:02;17.00;99.90
13264;DHT22;6700;51.988;7.646;2023-06-14T05:49:29;17.10;99.90
13264;DHT22;6700;51.988;7.646;2023-06-14T05:51:56;17.10;99.90
13264;DHT22;6700;51.988;7.646;2023-06-14T05:54:23;17.20;99.90
13264;DHT22;6700;51.988;7.646;2023-06-14T05:56:49;17.30;99.90
13264;DHT22;6700;51.988;7.646;2023-06-14T05:59:16;17.30;99.90
13264;DHT22;6700;51.988;7.646;2023-06-14T06:01:43;17.40;99.90
13264;DHT22;6700;51.988;7.646;2023-06-14T06:04:10;17.40;99.90
13264;DHT22;6700;51.988;7.646;2023-06-14T06:06:36;17.50;99.90
13264;DHT22;6700;51.988;7.646;2023-06-14T06:09:03;17.60;99.90
13264;DHT22;6700;51.988;7.646;2023-06-14T06:11:31;17.80;99.90
13264;DHT22;6700;51.988;7.646;2023-06-14T06:14:14;17.70;99.90
13264;DHT22;6700;51.988;7.646;2023-06-14T06:16:41;18.00;99.90
13264;DHT22;6700;51.988;7.646;2023-06-14T06:19:08;18.20;99.90
13264;DHT22;6700;51.988;7.646;2023-06-14T06:21:35;18.30;99.90
13264;DHT22;6700;51.988;7.646;2023-06-14T06:24:01;18.60;99.90
13264;DHT22;6700;51.988;7.646;2023-06-14T06:26:30;18.80;99.90
13264;DHT22;6700;51.988;7.646;2023-06-14T06:28:56;19.00;99.90
13264;DHT22;6700;51.988;7.646;2023-06-14T06:31:24;19.00;99.90
13264;DHT22;6700;51.988;7.646;2023-06-14T06:33:51;19.20;99.90
13264;DHT22;6700;51.988;7.646;2023-06-14T06:36:18;19.50;99.90
13264;DHT22;6700;51.988;7.646;2023-06-14T06:38:44;19.60;99.90
13264;DHT22;6700;51.988;7.646;2023-06-14T06:41:11;19.90;99.90
13264;DHT22;6700;51.988;7.646;2023-06-14T06:43:38;20.20;99.90
13264;DHT22;6700;51.988;7.646;2023-06-14T06:46:05;20.30;99.90
13264;DHT22;6700;51.988;7.646;2023-06-14T06:48:32;20.50;99.90
13264;DHT22;6700;51.988;7.646;2023-06-14T06:50:59;20.50;99.90
13264;DHT22;6700;51.988;7.646;2023-06-14T06:53:26;20.60;99.90
13264;DHT22;6700;51.988;7.646;2023-06-14T06:56:07;20.80;99.90
13264;DHT22;6700;51.988;7.646;2023-06-14T06:58:34;21.20;99.90
13264;DHT22;6700;51.988;7.646;2023-06-14T07:01:00;21.30;99.90
13264;DHT22;6700;51.988;7.646;2023-06-14T07:03:27;21.40;99.90
13264;DHT22;6700;51.988;7.646;2023-06-14T07:05:54;21.60;99.90
13264;DHT22;6700;51.988;7.646;2023-06-14T07:08:21;22.00;99.90
13264;DHT22;6700;51.988;7.646;2023-06-14T07:10:47;22.30;99.90
13264;DHT22;6700;51.988;7.646;2023-06-14T07:13:14;22.50;99.90
13264;DHT22;6700;51.988;7.646;2023-06-14T07:15:41;23.10;99.90
13264;DHT22;6700;51.988;7.646;2023-06-14T07:18:08;23.90;99.90
13264;DHT22;6700;51.988;7.646;2023-06-14T07:20:35;24.00;99.90
13264;DHT22;6700;51.988;7.646;2023-06-14T07:23:04;23.90;99.90
13264;DHT22;6700;51.988;7.646;2023-06-14T07:25:32;23.80;99.90
13264;DHT22;6700;51.988;7.646;2023-06-14T07:27:58;23.80;99.90
13264;DHT22;6700;51.988;7.646;2023-06-14T07:30:25;23.50;99.90
13264;DHT22;6700;51.988;7.646;2023-06-14T07:32:53;23.30;99.90
13264;DHT22;6700;51.988;7.646;2023-06-14T07:35:21;22.90;99.90
13264;DHT22;6700;51.988;7.646;2023-06-14T07:37:48;22.60;99.90
13264;DHT22;6700;51.988;7.646;2023-06-14T07:40:14;22.30;99.90
13264;DHT22;6700;51.988;7.646;2023-06-14T07:42:41;22.40;99.90
13264;DHT22;6700;51.988;7.646;2023-06-14T07:45:08;22.20;99.90
13264;DHT22;6700;51.988;7.646;2023-06-14T07:47:35;22.00;99.90
13264;DHT22;6700;51.988;7.646;2023-06-14T07:50:02;22.50;99.90
13264;DHT22;6700;51.988;7.646;2023-06-14T07:52:30;23.30;99.90
13264;DHT22;6700;51.988;7.646;2023-06-14T07:54:57;24.20;99.90
13264;DHT22;6700;51.988;7.646;2023-06-14T07:57:24;25.60;99.90
13264;DHT22;6700;51.988;7.646;2023-06-14T07:59:51;26.30;99.90
13264;DHT22;6700;51.988;7.646;2023-06-14T08:02:18;27.30;99.90
13264;DHT22;6700;51.988;7.646;2023-06-14T08:04:45;28.10;99.90
13264;DHT22;6700;51.988;7.646;2023-06-14T08:07:13;28.50;99.90
13264;DHT22;6700;51.988;7.646;2023-06-14T08:09:40;28.90;99.90
13264;DHT22;6700;51.988;7.646;2023-06-14T08:12:07;29.50;99.90
13264;DHT22;6700;51.988;7.646;2023-06-14T08:14:36;29.70;99.90
13264;DHT22;6700;51.988;7.646;2023-06-14T08:17:03;29.80;99.90
13264;DHT22;6700;51.988;7.646;2023-06-14T08:19:29;30.20;99.20
13264;DHT22;6700;51.988;7.646;2023-06-14T08:21:56;30.20;99.30
13264;DHT22;6700;51.988;7.646;2023-06-14T08:24:23;29.90;99.90
13264;DHT22;6700;51.988;7.646;2023-06-14T08:26:51;30.40;99.90
13264;DHT22;6700;51.988;7.646;2023-06-14T08:29:18;30.60;99.80
13264;DHT22;6700;51.988;7.646;2023-06-14T08:31:45;31.00;98.20
13264;DHT22;6700;51.988;7.646;2023-06-14T08:34:12;31.00;99.60
13264;DHT22;6700;51.988;7.646;2023-06-14T08:36:39;31.00;99.10
13264;DHT22;6700;51.988;7.646;2023-06-14T08:39:06;31.00;98.40
13264;DHT22;6700;51.988;7.646;2023-06-14T08:41:33;31.40;97.80
13264;DHT22;6700;51.988;7.646;2023-06-14T08:43:59;31.50;98.00
13264;DHT22;6700;51.988;7.646;2023-06-14T08:46:26;31.70;97.60
13264;DHT22;6700;51.988;7.646;2023-06-14T08:48:56;31.10;97.90
13264;DHT22;6700;51.988;7.646;2023-06-14T08:51:26;31.00;98.70
13264;DHT22;6700;51.988;7.646;2023-06-14T08:54:00;31.00;97.90
13264;DHT22;6700;51.988;7.646;2023-06-14T08:56:28;30.40;97.90
13264;DHT22;6700;51.988;7.646;2023-06-14T08:58:59;30.60;97.70
13264;DHT22;6700;51.988;7.646;2023-06-14T09:01:34;30.20;98.80
13264;DHT22;6700;51.988;7.646;2023-06-14T09:04:01;30.00;99.50
13264;DHT22;6700;51.988;7.646;2023-06-14T09:06:29;30.00;99.70
13264;DHT22;6700;51.988;7.646;2023-06-14T09:08:56;29.50;99.20
13264;DHT22;6700;51.988;7.646;2023-06-14T09:11:25;29.20;98.90
13264;DHT22;6700;51.988;7.646;2023-06-14T09:13:53;28.70;99.40
13264;DHT22;6700;51.988;7.646;2023-06-14T09:16:20;28.60;99.70
13264;DHT22;6700;51.988;7.646;2023-06-14T09:18:47;28.10;99.90
13264;DHT22;6700;51.988;7.646;2023-06-14T09:21:16;28.10;99.90
13264;DHT22;6700;51.988;7.646;2023-06-14T09:23:47;27.80;99.90
13264;DHT22;6700;51.988;7.646;2023-06-14T09:26:16;27.50;99.90
13264;DHT22;6700;51.988;7.646;2023-06-14T09:28:44;27.40;99.90
13264;DHT22;6700;51.988;7.646;2023-06-14T09:31:17;27.30;99.90
13264;DHT22;6700;51.988;7.646;2023-06-14T09:33:45;26.90;99.90
13264;DHT22;6700;51.988;7.646;2023-06-14T09:36:20;26.90;99.90
13264;DHT22;6700;51.988;7.646;2023-06-14T09:39:01;26.70;99.90
13264;DHT22;6700;51.988;7.646;2023-06-14T09:41:40;26.50;99.90
13264;DHT22;6700;51.988;7.646;2023-06-14T09:44:08;26.40;99.90
13264;DHT22;6700;51.988;7.646;2023-06-14T09:46:43;26.30;99.90
13264;DHT22;6700;51.988;7.646;2023-06-14T09:49:10;26.20;99.90
13264;DHT22;6700;51.988;7.646;2023-06-14T09:51:43;26.20;99.90
13264;DHT22;6700;51.988;7.646;2023-06-14T09:54:15;26.00;99.90
13264;DHT22;6700;51.988;7.646;2023-06-14T09:56:44;26.00;99.90
13264;DHT22;6700;51.988;7.646;2023-06-14T09:59:12;25.80;99.90
13264;DHT22;6700;51.988;7.646;2023-06-14T10:01:42;25.70;99.90
13264;DHT22;6700;51.988;7.646;2023-06-14T10:04:10;25.50;99.90
13264;DHT22;6700;51.988;7.646;2023-06-14T10:06:40;25.60;99.90
13264;DHT22;6700;51.988;7.646;2023-06-14T10:09:09;25.60;99.90
13264;DHT22;6700;51.988;7.646;2023-06-14T10:11:37;25.40;99.90
13264;DHT22;6700;51.988;7.646;2023-06-14T10:14:11;25.40;99.90
13264;DHT22;6700;51.988;7.646;2023-06-14T10:16:42;25.40;99.90
13264;DHT22;6700;51.988;7.646;2023-06-14T10:19:29;25.40;99.90
13264;DHT22;6700;51.988;7.646;2023-06-14T10:22:11;25.40;99.90
13264;DHT22;6700;51.988;7.646;2023-06-14T10:24:42;25.20;99.90
13264;DHT22;6700;51.988;7.646;2023-06-14T10:27:10;25.10;99.90
13264;DHT22;6700;51.988;7.646;2023-06-14T10:32:25;24.90;99.90
13264;DHT22;6700;51.988;7.646;2023-06-14T10:34:57;25.00;99.90
13264;DHT22;6700;51.988;7.646;2023-06-14T10:37:24;25.20;99.90
13264;DHT22;6700;51.988;7.646;2023-06-14T10:39:51;25.40;99.90
13264;DHT22;6700;51.988;7.646;2023-06-14T10:42:18;25.30;99.90
13264;DHT22;6700;51.988;7.646;2023-06-14T10:44:49;25.40;99.90
13264;DHT22;6700;51.988;7.646;2023-06-14T10:47:33;25.20;99.90
13264;DHT22;6700;51.988;7.646;2023-06-14T10:52:32;25.10;99.90
13264;DHT22;6700;51.988;7.646;2023-06-14T10:57:34;24.80;99.90
13264;DHT22;6700;51.988;7.646;2023-06-14T11:00:16;24.80;99.90
13264;DHT22;6700;51.988;7.646;2023-06-14T11:05:14;25.00;99.90
13264;DHT22;6700;51.988;7.646;2023-06-14T11:10:39;25.00;99.90
13264;DHT22;6700;51.988;7.646;2023-06-14T11:13:07;24.80;99.90
13264;DHT22;6700;51.988;7.646;2023-06-14T11:15:36;24.80;99.90
13264;DHT22;6700;51.988;7.646;2023-06-14T11:18:05;24.80;99.90
13264;DHT22;6700;51.988;7.646;2023-06-14T11:20:34;24.90;99.90
13264;DHT22;6700;51.988;7.646;2023-06-14T11:23:03;24.90;99.90
13264;DHT22;6700;51.988;7.646;2023-06-14T11:25:30;24.70;99.90
13264;DHT22;6700;51.988;7.646;2023-06-14T11:27:57;24.80;99.90
13264;DHT22;6700;51.988;7.646;2023-06-14T11:30:25;24.70;99.90
13264;DHT22;6700;51.988;7.646;2023-06-14T11:32:53;24.80;99.90
13264;DHT22;6700;51.988;7.646;2023-06-14T12:05:10;24.90;95.30
13264;DHT22;6700;51.988;7.646;2023-06-14T12:07:38;24.80;96.20
13264;DHT22;6700;51.988;7.646;2023-06-14T12:10:08;24.80;96.70
13264;DHT22;6700;51.988;7.646;2023-06-14T12:12:39;24.80;97.40
13264;DHT22;6700;51.988;7.646;2023-06-14T12:15:07;24.70;96.50
13264;DHT22;6700;51.988;7.646;2023-06-14T12:17:35;24.70;98.10
13264;DHT22;6700;51.988;7.646;2023-06-14T12:20:06;24.70;97.80
13264;DHT22;6700;51.988;7.646;2023-06-14T12:22:52;24.60;98.00
13264;DHT22;6700;51.988;7.646;2023-06-14T12:25:36;24.70;98.00
13264;DHT22;6700;51.988;7.646;2023-06-14T12:28:07;24.80;98.10
13264;DHT22;6700;51.988;7.646;2023-06-14T12:30:37;24.80;97.60
13264;DHT22;6700;51.988;7.646;2023-06-14T12:33:04;24.60;97.60
13264;DHT22;6700;51.988;7.646;2023-06-14T12:35:32;24.80;97.30
13264;DHT22;6700;51.988;7.646;2023-06-14T12:37:59;24.60;97.30
13264;DHT22;6700;51.988;7.646;2023-06-14T12:40:26;24.60;97.90
13264;DHT22;6700;51.988;7.646;2023-06-14T12:42:53;24.60;96.90
13264;DHT22;6700;51.988;7.646;2023-06-14T12:45:21;24.40;96.00
13264;DHT22;6700;51.988;7.646;2023-06-14T12:47:49;24.30;96.80
13264;DHT22;6700;51.988;7.646;2023-06-14T12:50:16;24.20;96.40
13264;DHT22;6700;51.988;7.646;2023-06-14T12:52:43;24.30;97.10
13264;DHT22;6700;51.988;7.646;2023-06-14T12:55:10;24.20;96.70
13264;DHT22;6700;51.988;7.646;2023-06-14T12:57:37;24.10;96.60
13264;DHT22;6700;51.988;7.646;2023-06-14T13:00:05;24.30;97.40
13264;DHT22;6700;51.988;7.646;2023-06-14T13:02:34;24.30;97.90
13264;DHT22;6700;51.988;7.646;2023-06-14T13:05:01;24.30;97.10
13264;DHT22;6700;51.988;7.646;2023-06-14T13:07:30;24.30;97.30
13264;DHT22;6700;51.988;7.646;2023-06-14T13:09:57;24.30;97.70
13264;DHT22;6700;51.988;7.646;2023-06-14T13:12:24;24.30;97.90
13264;DHT22;6700;51.988;7.646;2023-06-14T13:14:50;24.20;97.90
13264;DHT22;6700;51.988;7.646;2023-06-14T13:17:17;24.20;97.70
13264;DHT22;6700;51.988;7.646;2023-06-14T13:19:44;24.10;97.50
13264;DHT22;6700;51.988;7.646;2023-06-14T13:22:11;24.00;98.10
13264;DHT22;6700;51.988;7.646;2023-06-14T13:24:38;24.00;97.30
13264;DHT22;6700;51.988;7.646;2023-06-14T13:27:05;24.00;97.30
13264;DHT22;6700;51.988;7.646;2023-06-14T13:29:32;24.20;97.70
13264;DHT22;6700;51.988;7.646;2023-06-14T13:32:03;24.20;96.70
13264;DHT22;6700;51.988;7.646;2023-06-14T13:34:30;24.20;97.60
13264;DHT22;6700;51.988;7.646;2023-06-14T13:36:57;23.80;97.00
13264;DHT22;6700;51.988;7.646;2023-06-14T13:39:26;23.70;97.10
13264;DHT22;6700;51.988;7.646;2023-06-14T13:41:52;23.80;96.80
13264;DHT22;6700;51.988;7.646;2023-06-14T13:44:19;23.80;96.10
13264;DHT22;6700;51.988;7.646;2023-06-14T13:46:47;23.90;96.80
13264;DHT22;6700;51.988;7.646;2023-06-14T13:49:14;24.00;97.50
13264;DHT22;6700;51.988;7.646;2023-06-14T13:51:41;24.10;97.20
13264;DHT22;6700;51.988;7.646;2023-06-14T13:54:07;24.10;96.70
13264;DHT22;6700;51.988;7.646;2023-06-14T13:56:34;24.20;97.00
13264;DHT22;6700;51.988;7.646;2023-06-14T13:59:01;24.20;97.80
13264;DHT22;6700;51.988;7.646;2023-06-14T14:01:28;24.20;98.20
13264;DHT22;6700;51.988;7.646;2023-06-14T14:03:55;24.10;97.30
13264;DHT22;6700;51.988;7.646;2023-06-14T14:06:22;24.10;96.80
13264;DHT22;6700;51.988;7.646;2023-06-14T14:08:49;24.00;97.50
13264;DHT22;6700;51.988;7.646;2023-06-14T14:11:16;23.90;98.30
13264;DHT22;6700;51.988;7.646;2023-06-14T14:13:43;23.90;96.70
13264;DHT22;6700;51.988;7.646;2023-06-14T14:16:10;24.00;97.60
13264;DHT22;6700;51.988;7.646;2023-06-14T14:18:37;24.00;98.30
13264;DHT22;6700;51.988;7.646;2023-06-14T14:21:05;24.10;97.90
13264;DHT22;6700;51.988;7.646;2023-06-14T14:23:31;24.30;98.70
13264;DHT22;6700;51.988;7.646;2023-06-14T14:25:58;24.20;97.60
13264;DHT22;6700;51.988;7.646;2023-06-14T14:28:27;24.10;97.40
13264;DHT22;6700;51.988;7.646;2023-06-14T14:30:54;23.90;97.80
13264;DHT22;6700;51.988;7.646;2023-06-14T14:33:21;23.80;97.30
13264;DHT22;6700;51.988;7.646;2023-06-14T14:35:48;23.80;97.70
13264;DHT22;6700;51.988;7.646;2023-06-14T14:38:15;23.90;97.00
13264;DHT22;6700;51.988;7.646;2023-06-14T14:40:43;23.80;97.70
13264;DHT22;6700;51.988;7.646;2023-06-14T14:43:10;23.90;97.90
13264;DHT22;6700;51.988;7.646;2023-06-14T14:45:37;23.90;97.40
13264;DHT22;6700;51.988;7.646;2023-06-14T14:48:04;24.00;97.30
13264;DHT22;6700;51.988;7.646;2023-06-14T14:50:33;24.00;97.20
13264;DHT22;6700;51.988;7.646;2023-06-14T14:52:59;24.00;97.90
13264;DHT22;6700;51.988;7.646;2023-06-14T14:55:26;23.90;96.90
13264;DHT22;6700;51.988;7.646;2023-06-14T14:57:53;23.70;97.90
13264;DHT22;6700;51.988;7.646;2023-06-14T15:00:20;23.60;98.50
13264;DHT22;6700;51.988;7.646;2023-06-14T15:02:47;23.70;97.90
13264;DHT22;6700;51.988;7.646;2023-06-14T15:05:14;23.70;98.50
13264;DHT22;6700;51.988;7.646;2023-06-14T15:07:41;23.90;97.80
13264;DHT22;6700;51.988;7.646;2023-06-14T15:10:08;24.00;98.40
13264;DHT22;6700;51.988;7.646;2023-06-14T15:12:35;23.90;97.40
13264;DHT22;6700;51.988;7.646;2023-06-14T15:15:03;23.90;97.70
13264;DHT22;6700;51.988;7.646;2023-06-14T15:17:30;23.70;98.40
13264;DHT22;6700;51.988;7.646;2023-06-14T15:19:57;23.70;98.70
13264;DHT22;6700;51.988;7.646;2023-06-14T15:22:23;23.80;97.90
13264;DHT22;6700;51.988;7.646;2023-06-14T15:24:50;23.90;98.20
13264;DHT22;6700;51.988;7.646;2023-06-14T15:27:17;23.90;97.30
13264;DHT22;6700;51.988;7.646;2023-06-14T15:29:44;24.00;97.50
13264;DHT22;6700;51.988;7.646;2023-06-14T15:32:14;23.90;98.10
13264;DHT22;6700;51.988;7.646;2023-06-14T15:34:41;23.70;98.40
13264;DHT22;6700;51.988;7.646;2023-06-14T15:37:08;23.60;98.30
13264;DHT22;6700;51.988;7.646;2023-06-14T15:39:35;23.50;98.90
13264;DHT22;6700;51.988;7.646;2023-06-14T15:42:02;23.40;98.00
13264;DHT22;6700;51.988;7.646;2023-06-14T15:44:29;23.40;98.70
13264;DHT22;6700;51.988;7.646;2023-06-14T15:46:56;23.60;98.30
13264;DHT22;6700;51.988;7.646;2023-06-14T15:49:23;23.70;98.20
13264;DHT22;6700;51.988;7.646;2023-06-14T15:51:50;23.70;98.80
13264;DHT22;6700;51.988;7.646;2023-06-14T15:54:17;23.80;98.50
13264;DHT22;6700;51.988;7.646;2023-06-14T15:56:43;23.90;98.80
13264;DHT22;6700;51.988;7.646;2023-06-14T15:59:10;23.70;98.50
13264;DHT22;6700;51.988;7.646;2023-06-14T16:01:37;23.60;98.70
13264;DHT22;6700;51.988;7.646;2023-06-14T16:04:04;23.30;98.40
13264;DHT22;6700;51.988;7.646;2023-06-14T16:06:31;23.20;98.70
13264;DHT22;6700;51.988;7.646;2023-06-14T16:08:58;23.20;99.00
13264;DHT22;6700;51.988;7.646;2023-06-14T16:11:25;23.30;98.20
13264;DHT22;6700;51.988;7.646;2023-06-14T16:13:51;23.40;99.10
13264;DHT22;6700;51.988;7.646;2023-06-14T16:16:18;23.40;98.60
13264;DHT22;6700;51.988;7.646;2023-06-14T16:18:47;23.40;99.50
13264;DHT22;6700;51.988;7.646;2023-06-14T16:21:14;23.30;99.90
13264;DHT22;6700;51.988;7.646;2023-06-14T16:23:41;23.30;99.50
13264;DHT22;6700;51.988;7.646;2023-06-14T16:26:10;23.30;99.10
13264;DHT22;6700;51.988;7.646;2023-06-14T16:28:38;23.30;99.20
13264;DHT22;6700;51.988;7.646;2023-06-14T16:31:12;23.20;98.40
13264;DHT22;6700;51.988;7.646;2023-06-14T16:33:43;23.20;98.50
13264;DHT22;6700;51.988;7.646;2023-06-14T16:36:10;23.20;98.30